sensor_id;sensor_type;location;lat;lon;timestamp;temperature;humidity
67722;SHT31;58309;45.292;11.820;2024-02-15T00:01:55;2.76;99.99
67722;SHT31;58309;45.292;11.820;2024-02-15T00:04:20;2.74;99.99
67722;SHT31;58309;45.292;11.820;2024-02-15T00:06:46;2.70;99.99
67722;SHT31;58309;45.292;11.820;2024-02-15T00:09:11;2.61;99.99
67722;SHT31;58309;45.292;11.820;2024-02-15T00:11:37;2.44;99.99
67722;SHT31;58309;45.292;11.820;2024-02-15T00:14:04;2.44;99.99
67722;SHT31;58309;45.292;11.820;2024-02-15T00:16:30;2.57;99.99
67722;SHT31;58309;45.292;11.820;2024-02-15T00:18:55;2.64;99.99
67722;SHT31;58309;45.292;11.820;2024-02-15T00:21:21;2.70;99.99
67722;SHT31;58309;45.292;11.820;2024-02-15T00:23:48;2.77;99.99
67722;SHT31;58309;45.292;11.820;2024-02-15T00:26:13;2.72;99.99
67722;SHT31;58309;45.292;11.820;2024-02-15T00:28:41;2.58;99.99
67722;SHT31;58309;45.292;11.820;2024-02-15T00:31:06;2.57;99.99
67722;SHT31;58309;45.292;11.820;2024-02-15T00:33:33;2.61;99.99
67722;SHT31;58309;45.292;11.820;2024-02-15T00:35:59;2.54;99.99
67722;SHT31;58309;45.292;11.820;2024-02-15T00:38:24;2.64;99.99
67722;SHT31;58309;45.292;11.820;2024-02-15T00:40:50;2.66;99.99
67722;SHT31;58309;45.292;11.820;2024-02-15T00:43:15;2.66;99.99
67722;SHT31;58309;45.292;11.820;2024-02-15T00:45:40;2.66;99.99
67722;SHT31;58309;45.292;11.820;2024-02-15T00:48:06;2.66;99.99
67722;SHT31;58309;45.292;11.820;2024-02-15T00:50:32;2.66;99.99
67722;SHT31;58309;45.292;11.820;2024-02-15T00:52:57;2.63;99.99
67722;SHT31;58309;45.292;11.820;2024-02-15T00:55:23;2.60;99.99
67722;SHT31;58309;45.292;11.820;2024-02-15T00:57:48;2.58;99.99
67722;SHT31;58309;45.292;11.820;2024-02-15T01:00:14;2.47;99.99
67722;SHT31;58309;45.292;11.820;2024-02-15T01:02:40;2.43;99.99
67722;SHT31;58309;45.292;11.820;2024-02-15T01:05:05;2.40;99.99
67722;SHT31;58309;45.292;11.820;2024-02-15T01:07:31;2.39;99.99
67722;SHT31;58309;45.292;11.820;2024-02-15T01:09:56;2.37;99.99
67722;SHT31;58309;45.292;11.820;2024-02-15T01:12:22;2.29;99.99
67722;SHT31;58309;45.292;11.820;2024-02-15T01:14:47;2.21;99.99
67722;SHT31;58309;45.292;11.820;2024-02-15T01:17:13;2.26;99.99
67722;SHT31;58309;45.292;11.820;2024-02-15T01:19:38;2.26;99.99
67722;SHT31;58309;45.292;11.820;2024-02-15T01:22:04;2.12;99.99
67722;SHT31;58309;45.292;11.820;2024-02-15T01:24:31;2.05;99.99
67722;SHT31;58309;45.292;11.820;2024-02-15T01:26:58;2.06;99.99
67722;SHT31;58309;45.292;11.820;2024-02-15T01:29:23;1.95;99.99
67722;SHT31;58309;45.292;11.820;2024-02-15T01:31:51;1.88;99.99
67722;SHT31;58309;45.292;11.820;2024-02-15T01:34:16;1.81;99.99
67722;SHT31;58309;45.292;11.820;2024-02-15T01:36:42;1.78;99.99
67722;SHT31;58309;45.292;11.820;2024-02-15T01:39:07;1.77;99.99
67722;SHT31;58309;45.292;11.820;2024-02-15T01:41:33;1.70;99.99
67722;SHT31;58309;45.292;11.820;2024-02-15T01:43:58;1.78;99.99
67722;SHT31;58309;45.292;11.820;2024-02-15T01:46:24;1.73;99.99
67722;SHT31;58309;45.292;11.820;2024-02-15T01:48:50;1.86;99.99
67722;SHT31;58309;45.292;11.820;2024-02-15T01:51:16;1.84;99.99
67722;SHT31;58309;45.292;11.820;2024-02-15T01:53:42;1.75;99.99
67722;SHT31;58309;45.292;11.820;2024-02-15T01:56:08;1.85;99.99
67722;SHT31;58309;45.292;11.820;2024-02-15T01:58:33;1.88;99.99
67722;SHT31;58309;45.292;11.820;2024-02-15T02:01:01;1.81;99.99
67722;SHT31;58309;45.292;11.820;2024-02-15T02:03:27;1.89;99.99
67722;SHT31;58309;45.292;11.820;2024-02-15T02:05:52;1.94;99.99
67722;SHT31;58309;45.292;11.820;2024-02-15T02:08:18;1.94;99.99
67722;SHT31;58309;45.292;11.820;2024-02-15T02:10:43;1.94;99.99
67722;SHT31;58309;45.292;11.820;2024-02-15T02:13:11;1.99;99.99
67722;SHT31;58309;45.292;11.820;2024-02-15T02:15:37;2.06;99.99
67722;SHT31;58309;45.292;11.820;2024-02-15T02:18:03;1.97;99.99
67722;SHT31;58309;45.292;11.820;2024-02-15T02:20:31;1.89;99.99
67722;SHT31;58309;45.292;11.820;2024-02-15T02:23:03;1.94;99.99
67722;SHT31;58309;45.292;11.820;2024-02-15T02:25:32;1.99;99.99
67722;SHT31;58309;45.292;11.820;2024-02-15T02:27:59;1.92;99.99
67722;SHT31;58309;45.292;11.820;2024-02-15T02:30:25;1.82;99.99
67722;SHT31;58309;45.292;11.820;2024-02-15T02:32:57;1.70;99.99
67722;SHT31;58309;45.292;11.820;2024-02-15T02:35:24;1.64;99.99
67722;SHT31;58309;45.292;11.820;2024-02-15T02:37:50;1.58;99.99
67722;SHT31;58309;45.292;11.820;2024-02-15T02:40:18;1.48;99.99
67722;SHT31;58309;45.292;11.820;2024-02-15T02:42:53;1.47;99.99
67722;SHT31;58309;45.292;11.820;2024-02-15T02:45:19;1.54;99.99
67722;SHT31;58309;45.292;11.820;2024-02-15T02:47:52;1.71;99.99
67722;SHT31;58309;45.292;11.820;2024-02-15T02:50:18;1.79;99.99
67722;SHT31;58309;45.292;11.820;2024-02-15T02:52:44;1.84;99.99
67722;SHT31;58309;45.292;11.820;2024-02-15T02:55:10;1.91;99.99
67722;SHT31;58309;45.292;11.820;2024-02-15T02:57:36;1.95;99.99
67722;SHT31;58309;45.292;11.820;2024-02-15T03:00:07;1.98;99.99
67722;SHT31;58309;45.292;11.820;2024-02-15T03:02:37;1.97;99.99
67722;SHT31;58309;45.292;11.820;2024-02-15T03:05:04;1.95;99.99
67722;SHT31;58309;45.292;11.820;2024-02-15T03:07:32;1.98;99.99
67722;SHT31;58309;45.292;11.820;2024-02-15T03:09:58;1.98;99.99
67722;SHT31;58309;45.292;11.820;2024-02-15T03:12:23;1.97;99.99
67722;SHT31;58309;45.292;11.820;2024-02-15T03:14:49;2.04;99.99
67722;SHT31;58309;45.292;11.820;2024-02-15T03:17:15;2.09;99.99
67722;SHT31;58309;45.292;11.820;2024-02-15T03:19:41;2.08;99.99
67722;SHT31;58309;45.292;11.820;2024-02-15T03:22:06;2.09;99.99
67722;SHT31;58309;45.292;11.820;2024-02-15T03:24:32;2.16;99.99
67722;SHT31;58309;45.292;11.820;2024-02-15T03:26:57;2.16;99.99
67722;SHT31;58309;45.292;11.820;2024-02-15T03:29:23;2.12;99.99
67722;SHT31;58309;45.292;11.820;2024-02-15T03:31:48;2.05;99.99
67722;SHT31;58309;45.292;11.820;2024-02-15T03:34:14;1.88;99.99
67722;SHT31;58309;45.292;11.820;2024-02-15T03:36:41;1.79;99.99
67722;SHT31;58309;45.292;11.820;2024-02-15T03:39:06;1.65;99.99
67722;SHT31;58309;45.292;11.820;2024-02-15T03:41:33;1.58;99.99
67722;SHT31;58309;45.292;11.820;2024-02-15T03:43:59;1.57;99.99
67722;SHT31;58309;45.292;11.820;2024-02-15T03:46:25;1.50;99.99
67722;SHT31;58309;45.292;11.820;2024-02-15T03:48:53;1.42;99.99
67722;SHT31;58309;45.292;11.820;2024-02-15T03:51:18;1.37;99.99
67722;SHT31;58309;45.292;11.820;2024-02-15T03:53:44;1.34;99.99
67722;SHT31;58309;45.292;11.820;2024-02-15T03:56:09;1.42;99.99
67722;SHT31;58309;45.292;11.820;2024-02-15T03:58:35;1.51;99.99
67722;SHT31;58309;45.292;11.820;2024-02-15T04:01:02;1.54;99.99
67722;SHT31;58309;45.292;11.820;2024-02-15T04:03:31;1.47;99.99
67722;SHT31;58309;45.292;11.820;2024-02-15T04:05:57;1.44;99.99
67722;SHT31;58309;45.292;11.820;2024-02-15T04:08:23;1.46;99.99
67722;SHT31;58309;45.292;11.820;2024-02-15T04:10:49;1.53;99.99
67722;SHT31;58309;45.292;11.820;2024-02-15T04:13:14;1.50;99.99
67722;SHT31;58309;45.292;11.820;2024-02-15T04:15:40;1.55;99.99
67722;SHT31;58309;45.292;11.820;2024-02-15T04:18:07;1.65;99.99
67722;SHT31;58309;45.292;11.820;2024-02-15T04:20:33;1.70;99.99
67722;SHT31;58309;45.292;11.820;2024-02-15T04:22:59;1.71;99.99
67722;SHT31;58309;45.292;11.820;2024-02-15T04:25:25;1.75;99.99
67722;SHT31;58309;45.292;11.820;2024-02-15T04:27:53;1.79;99.99
67722;SHT31;58309;45.292;11.820;2024-02-15T04:30:19;1.74;99.99
67722;SHT31;58309;45.292;11.820;2024-02-15T04:32:45;1.71;99.99
67722;SHT31;58309;45.292;11.820;2024-02-15T04:35:12;1.60;99.99
67722;SHT31;58309;45.292;11.820;2024-02-15T04:37:38;1.55;99.99
67722;SHT31;58309;45.292;11.820;2024-02-15T04:40:04;1.48;99.99
67722;SHT31;58309;45.292;11.820;2024-02-15T04:42:36;1.42;99.99
67722;SHT31;58309;45.292;11.820;2024-02-15T04:45:06;1.40;99.99
67722;SHT31;58309;45.292;11.820;2024-02-15T04:47:38;1.34;99.99
67722;SHT31;58309;45.292;11.820;2024-02-15T04:50:06;1.29;99.99
67722;SHT31;58309;45.292;11.820;2024-02-15T04:52:32;1.26;99.99
67722;SHT31;58309;45.292;11.820;2024-02-15T04:54:58;1.16;99.99
67722;SHT31;58309;45.292;11.820;2024-02-15T04:57:24;1.10;99.99
67722;SHT31;58309;45.292;11.820;2024-02-15T04:59:53;1.03;99.99
67722;SHT31;58309;45.292;11.820;2024-02-15T05:02:19;1.00;99.99
67722;SHT31;58309;45.292;11.820;2024-02-15T05:04:45;0.99;99.99
67722;SHT31;58309;45.292;11.820;2024-02-15T05:07:10;1.03;99.99
67722;SHT31;58309;45.292;11.820;2024-02-15T05:09:36;1.06;99.99
67722;SHT31;58309;45.292;11.820;2024-02-15T05:12:01;1.12;99.99
67722;SHT31;58309;45.292;11.820;2024-02-15T05:14:30;1.15;99.99
67722;SHT31;58309;45.292;11.820;2024-02-15T05:16:56;1.19;99.99
67722;SHT31;58309;45.292;11.820;2024-02-15T05:19:21;1.20;99.99
67722;SHT31;58309;45.292;11.820;2024-02-15T05:21:47;1.17;99.99
67722;SHT31;58309;45.292;11.820;2024-02-15T05:24:13;1.10;99.99
67722;SHT31;58309;45.292;11.820;2024-02-15T05:26:46;1.00;99.99
67722;SHT31;58309;45.292;11.820;2024-02-15T05:29:12;0.97;99.99
67722;SHT31;58309;45.292;11.820;2024-02-15T05:31:38;0.82;99.99
67722;SHT31;58309;45.292;11.820;2024-02-15T05:34:10;0.78;99.99
67722;SHT31;58309;45.292;11.820;2024-02-15T05:36:37;0.68;99.99
67722;SHT31;58309;45.292;11.820;2024-02-15T05:39:03;0.62;99.99
67722;SHT31;58309;45.292;11.820;2024-02-15T05:41:30;0.60;99.99
67722;SHT31;58309;45.292;11.820;2024-02-15T05:43:55;0.64;99.99
67722;SHT31;58309;45.292;11.820;2024-02-15T05:46:23;0.73;99.99
67722;SHT31;58309;45.292;11.820;2024-02-15T05:48:49;0.78;99.99
67722;SHT31;58309;45.292;11.820;2024-02-15T05:51:15;0.81;99.99
67722;SHT31;58309;45.292;11.820;2024-02-15T05:53:41;0.81;99.99
67722;SHT31;58309;45.292;11.820;2024-02-15T05:56:08;0.88;99.99
67722;SHT31;58309;45.292;11.820;2024-02-15T05:58:34;0.91;99.99
67722;SHT31;58309;45.292;11.820;2024-02-15T06:01:01;0.91;99.99
67722;SHT31;58309;45.292;11.820;2024-02-15T06:03:31;0.91;99.99
67722;SHT31;58309;45.292;11.820;2024-02-15T06:06:02;0.95;99.99
67722;SHT31;58309;45.292;11.820;2024-02-15T06:08:34;1.00;99.99
67722;SHT31;58309;45.292;11.820;2024-02-15T06:11:00;1.07;99.99
67722;SHT31;58309;45.292;11.820;2024-02-15T06:13:26;1.12;99.99
67722;SHT31;58309;45.292;11.820;2024-02-15T06:15:53;1.10;99.99
67722;SHT31;58309;45.292;11.820;2024-02-15T06:18:27;1.02;99.99
67722;SHT31;58309;45.292;11.820;2024-02-15T06:20:55;0.95;99.99
67722;SHT31;58309;45.292;11.820;2024-02-15T06:23:23;0.92;99.99
67722;SHT31;58309;45.292;11.820;2024-02-15T06:25:51;0.89;99.99
67722;SHT31;58309;45.292;11.820;2024-02-15T06:28:18;0.89;99.99
67722;SHT31;58309;45.292;11.820;2024-02-15T06:31:02;0.83;99.99
67722;SHT31;58309;45.292;11.820;2024-02-15T06:33:46;0.88;99.99
67722;SHT31;58309;45.292;11.820;2024-02-15T06:36:30;0.91;99.99
67722;SHT31;58309;45.292;11.820;2024-02-15T06:39:14;0.96;99.99
67722;SHT31;58309;45.292;11.820;2024-02-15T06:41:58;0.97;99.99
67722;SHT31;58309;45.292;11.820;2024-02-15T06:44:23;1.06;99.99
67722;SHT31;58309;45.292;11.820;2024-02-15T06:46:49;1.24;99.99
67722;SHT31;58309;45.292;11.820;2024-02-15T06:49:15;1.32;99.99
67722;SHT31;58309;45.292;11.820;2024-02-15T06:51:41;1.42;99.99
67722;SHT31;58309;45.292;11.820;2024-02-15T06:54:07;1.48;99.99
67722;SHT31;58309;45.292;11.820;2024-02-15T06:56:36;1.55;99.99
67722;SHT31;58309;45.292;11.820;2024-02-15T06:59:03;1.64;99.99
67722;SHT31;58309;45.292;11.820;2024-02-15T07:01:28;1.78;99.99
67722;SHT31;58309;45.292;11.820;2024-02-15T07:03:54;1.95;99.99
67722;SHT31;58309;45.292;11.820;2024-02-15T07:06:21;2.04;99.99
67722;SHT31;58309;45.292;11.820;2024-02-15T07:08:47;2.13;99.99
67722;SHT31;58309;45.292;11.820;2024-02-15T07:11:13;2.15;99.99
67722;SHT31;58309;45.292;11.820;2024-02-15T07:13:38;2.13;99.99
67722;SHT31;58309;45.292;11.820;2024-02-15T07:16:10;2.18;99.99
67722;SHT31;58309;45.292;11.820;2024-02-15T07:18:36;2.23;99.99
67722;SHT31;58309;45.292;11.820;2024-02-15T07:21:02;2.30;99.99
67722;SHT31;58309;45.292;11.820;2024-02-15T07:23:33;2.40;99.99
67722;SHT31;58309;45.292;11.820;2024-02-15T07:25:59;2.50;99.99
67722;SHT31;58309;45.292;11.820;2024-02-15T07:28:25;2.61;99.99
67722;SHT31;58309;45.292;11.820;2024-02-15T07:30:54;2.70;99.99
67722;SHT31;58309;45.292;11.820;2024-02-15T07:33:20;2.84;99.99
67722;SHT31;58309;45.292;11.820;2024-02-15T07:35:46;2.91;99.99
67722;SHT31;58309;45.292;11.820;2024-02-15T07:38:12;3.04;99.99
67722;SHT31;58309;45.292;11.820;2024-02-15T07:40:37;3.16;99.99
67722;SHT31;58309;45.292;11.820;2024-02-15T07:43:05;3.25;99.99
67722;SHT31;58309;45.292;11.820;2024-02-15T07:45:31;3.29;99.99
67722;SHT31;58309;45.292;11.820;2024-02-15T07:48:00;3.35;99.99
67722;SHT31;58309;45.292;11.820;2024-02-15T07:50:26;3.52;99.99
67722;SHT31;58309;45.292;11.820;2024-02-15T07:52:51;3.69;99.99
67722;SHT31;58309;45.292;11.820;2024-02-15T07:55:17;3.87;99.99
67722;SHT31;58309;45.292;11.820;2024-02-15T07:57:42;4.08;99.99
67722;SHT31;58309;45.292;11.820;2024-02-15T08:00:09;4.34;99.99
67722;SHT31;58309;45.292;11.820;2024-02-15T08:02:37;4.51;99.99
67722;SHT31;58309;45.292;11.820;2024-02-15T08:05:06;4.66;99.99
67722;SHT31;58309;45.292;11.820;2024-02-15T08:07:37;4.78;99.99
67722;SHT31;58309;45.292;11.820;2024-02-15T08:10:02;4.95;99.99
67722;SHT31;58309;45.292;11.820;2024-02-15T08:12:29;5.05;99.99
67722;SHT31;58309;45.292;11.820;2024-02-15T08:14:55;5.16;99.99
67722;SHT31;58309;45.292;11.820;2024-02-15T08:17:21;5.27;99.99
67722;SHT31;58309;45.292;11.820;2024-02-15T08:19:46;5.44;99.99
67722;SHT31;58309;45.292;11.820;2024-02-15T08:22:11;5.61;99.99
67722;SHT31;58309;45.292;11.820;2024-02-15T08:24:37;5.78;99.99
67722;SHT31;58309;45.292;11.820;2024-02-15T08:27:02;5.88;99.99
67722;SHT31;58309;45.292;11.820;2024-02-15T08:29:30;6.03;99.99
67722;SHT31;58309;45.292;11.820;2024-02-15T08:31:55;6.32;99.99
67722;SHT31;58309;45.292;11.820;2024-02-15T08:34:20;6.53;99.99
67722;SHT31;58309;45.292;11.820;2024-02-15T08:36:46;6.87;99.99
67722;SHT31;58309;45.292;11.820;2024-02-15T08:39:13;7.25;99.99
67722;SHT31;58309;45.292;11.820;2024-02-15T08:41:41;7.58;99.99
67722;SHT31;58309;45.292;11.820;2024-02-15T08:44:07;7.76;99.92
67722;SHT31;58309;45.292;11.820;2024-02-15T08:46:37;8.28;97.13
67722;SHT31;58309;45.292;11.820;2024-02-15T08:49:02;9.47;95.63
67722;SHT31;58309;45.292;11.820;2024-02-15T08:51:29;9.92;89.47
67722;SHT31;58309;45.292;11.820;2024-02-15T08:53:56;10.97;89.68
67722;SHT31;58309;45.292;11.820;2024-02-15T08:56:21;11.73;86.20
67722;SHT31;58309;45.292;11.820;2024-02-15T08:58:48;11.72;82.96
67722;SHT31;58309;45.292;11.820;2024-02-15T09:01:14;12.42;83.11
67722;SHT31;58309;45.292;11.820;2024-02-15T09:03:39;12.86;84.46
67722;SHT31;58309;45.292;11.820;2024-02-15T09:06:05;12.68;80.72
67722;SHT31;58309;45.292;11.820;2024-02-15T09:08:33;13.24;82.90
67722;SHT31;58309;45.292;11.820;2024-02-15T09:10:58;13.70;78.50
67722;SHT31;58309;45.292;11.820;2024-02-15T09:13:24;13.10;77.89
67722;SHT31;58309;45.292;11.820;2024-02-15T09:15:49;13.94;80.92
67722;SHT31;58309;45.292;11.820;2024-02-15T09:18:15;14.62;78.52
67722;SHT31;58309;45.292;11.820;2024-02-15T09:20:43;13.44;76.28
67722;SHT31;58309;45.292;11.820;2024-02-15T09:23:10;14.23;76.34
67722;SHT31;58309;45.292;11.820;2024-02-15T09:25:41;14.70;76.52
67722;SHT31;58309;45.292;11.820;2024-02-15T09:28:09;14.87;73.86
67722;SHT31;58309;45.292;11.820;2024-02-15T09:30:35;15.58;74.58
67722;SHT31;58309;45.292;11.820;2024-02-15T09:33:01;16.04;70.39
67722;SHT31;58309;45.292;11.820;2024-02-15T09:35:28;15.38;70.78
67722;SHT31;58309;45.292;11.820;2024-02-15T09:37:55;15.81;69.32
67722;SHT31;58309;45.292;11.820;2024-02-15T09:40:21;15.86;69.43
67722;SHT31;58309;45.292;11.820;2024-02-15T09:42:51;15.93;68.24
67722;SHT31;58309;45.292;11.820;2024-02-15T09:45:17;16.14;68.81
67722;SHT31;58309;45.292;11.820;2024-02-15T09:47:44;16.58;67.49
67722;SHT31;58309;45.292;11.820;2024-02-15T09:50:14;16.84;67.99
67722;SHT31;58309;45.292;11.820;2024-02-15T09:52:40;17.19;65.21
67722;SHT31;58309;45.292;11.820;2024-02-15T09:55:07;17.47;66.61
67722;SHT31;58309;45.292;11.820;2024-02-15T09:57:44;18.19;64.18
67722;SHT31;58309;45.292;11.820;2024-02-15T10:00:12;17.22;65.72
67722;SHT31;58309;45.292;11.820;2024-02-15T10:02:43;17.91;63.35
67722;SHT31;58309;45.292;11.820;2024-02-15T10:05:10;18.31;62.98
67722;SHT31;58309;45.292;11.820;2024-02-15T10:07:41;18.05;62.92
67722;SHT31;58309;45.292;11.820;2024-02-15T10:10:19;16.81;65.31
67722;SHT31;58309;45.292;11.820;2024-02-15T10:12:48;18.28;62.72
67722;SHT31;58309;45.292;11.820;2024-02-15T10:17:59;18.24;62.77
67722;SHT31;58309;45.292;11.820;2024-02-15T10:20:25;18.01;63.31
67722;SHT31;58309;45.292;11.820;2024-02-15T10:23:14;18.22;63.79
67722;SHT31;58309;45.292;11.820;2024-02-15T10:25:43;17.39;65.53
67722;SHT31;58309;45.292;11.820;2024-02-15T10:28:11;18.39;64.88
67722;SHT31;58309;45.292;11.820;2024-02-15T10:30:43;18.73;62.94
67722;SHT31;58309;45.292;11.820;2024-02-15T10:33:09;18.45;63.21
67722;SHT31;58309;45.292;11.820;2024-02-15T10:35:35;18.48;63.26
67722;SHT31;58309;45.292;11.820;2024-02-15T10:38:09;17.80;64.04
67722;SHT31;58309;45.292;11.820;2024-02-15T10:40:36;18.25;64.32
67722;SHT31;58309;45.292;11.820;2024-02-15T10:43:05;18.11;63.13
67722;SHT31;58309;45.292;11.820;2024-02-15T10:45:31;18.32;63.47
67722;SHT31;58309;45.292;11.820;2024-02-15T10:47:57;19.47;61.52
67722;SHT31;58309;45.292;11.820;2024-02-15T10:50:23;19.87;62.14
67722;SHT31;58309;45.292;11.820;2024-02-15T10:52:57;18.97;62.50
67722;SHT31;58309;45.292;11.820;2024-02-15T10:55:46;19.30;63.95
67722;SHT31;58309;45.292;11.820;2024-02-15T10:58:16;19.38;62.06
67722;SHT31;58309;45.292;11.820;2024-02-15T11:00:46;18.74;62.62
67722;SHT31;58309;45.292;11.820;2024-02-15T11:03:19;19.17;64.55
67722;SHT31;58309;45.292;11.820;2024-02-15T11:05:47;19.23;63.57
67722;SHT31;58309;45.292;11.820;2024-02-15T11:08:13;18.38;65.29
67722;SHT31;58309;45.292;11.820;2024-02-15T11:10:39;19.34;62.81
67722;SHT31;58309;45.292;11.820;2024-02-15T11:13:09;19.81;63.44
67722;SHT31;58309;45.292;11.820;2024-02-15T11:18:01;19.35;63.28
67722;SHT31;58309;45.292;11.820;2024-02-15T11:22:58;19.59;62.75
67722;SHT31;58309;45.292;11.820;2024-02-15T11:25:34;19.41;61.60
67722;SHT31;58309;45.292;11.820;2024-02-15T11:28:35;20.39;60.48
67722;SHT31;58309;45.292;11.820;2024-02-15T11:31:02;20.81;58.43
67722;SHT31;58309;45.292;11.820;2024-02-15T11:33:35;20.54;59.18
67722;SHT31;58309;45.292;11.820;2024-02-15T11:36:30;20.26;60.67
67722;SHT31;58309;45.292;11.820;2024-02-15T11:38:56;20.16;60.18
67722;SHT31;58309;45.292;11.820;2024-02-15T11:41:22;19.58;61.18
67722;SHT31;58309;45.292;11.820;2024-02-15T11:43:51;18.80;63.19
67722;SHT31;58309;45.292;11.820;2024-02-15T11:46:22;18.69;62.32
67722;SHT31;58309;45.292;11.820;2024-02-15T11:48:51;19.15;62.44
67722;SHT31;58309;45.292;11.820;2024-02-15T11:51:32;17.71;67.21
67722;SHT31;58309;45.292;11.820;2024-02-15T11:54:08;18.76;64.54
67722;SHT31;58309;45.292;11.820;2024-02-15T11:56:56;19.14;61.46
67722;SHT31;58309;45.292;11.820;2024-02-15T11:59:41;19.07;62.21
67722;SHT31;58309;45.292;11.820;2024-02-15T12:02:38;18.74;62.54
67722;SHT31;58309;45.292;11.820;2024-02-15T12:05:22;18.73;63.20
67722;SHT31;58309;45.292;11.820;2024-02-15T12:08:05;18.96;64.38
67722;SHT31;58309;45.292;11.820;2024-02-15T12:10:59;19.39;61.95
67722;SHT31;58309;45.292;11.820;2024-02-15T12:13:49;19.06;61.72
67722;SHT31;58309;45.292;11.820;2024-02-15T12:16:33;20.19;59.67
67722;SHT31;58309;45.292;11.820;2024-02-15T12:19:17;20.99;58.71
67722;SHT31;58309;45.292;11.820;2024-02-15T12:21:43;20.95;58.70
67722;SHT31;58309;45.292;11.820;2024-02-15T12:24:08;19.45;61.75
67722;SHT31;58309;45.292;11.820;2024-02-15T12:26:34;20.50;61.35
67722;SHT31;58309;45.292;11.820;2024-02-15T12:29:00;21.08;57.91
67722;SHT31;58309;45.292;11.820;2024-02-15T12:31:27;20.90;59.06
67722;SHT31;58309;45.292;11.820;2024-02-15T12:34:02;20.61;60.08
67722;SHT31;58309;45.292;11.820;2024-02-15T12:36:35;20.37;60.00
67722;SHT31;58309;45.292;11.820;2024-02-15T12:39:04;20.60;58.64
67722;SHT31;58309;45.292;11.820;2024-02-15T12:41:48;21.01;57.42
67722;SHT31;58309;45.292;11.820;2024-02-15T12:44:18;21.06;57.27
67722;SHT31;58309;45.292;11.820;2024-02-15T12:46:56;20.80;59.42
67722;SHT31;58309;45.292;11.820;2024-02-15T12:51:52;20.80;56.71
67722;SHT31;58309;45.292;11.820;2024-02-15T12:54:21;20.12;59.67
67722;SHT31;58309;45.292;11.820;2024-02-15T12:56:47;20.54;57.82
67722;SHT31;58309;45.292;11.820;2024-02-15T12:59:18;20.16;60.81
67722;SHT31;58309;45.292;11.820;2024-02-15T13:01:48;19.65;61.90
67722;SHT31;58309;45.292;11.820;2024-02-15T13:04:26;19.69;64.23
67722;SHT31;58309;45.292;11.820;2024-02-15T13:06:51;19.44;61.62
67722;SHT31;58309;45.292;11.820;2024-02-15T13:09:17;19.25;62.19
67722;SHT31;58309;45.292;11.820;2024-02-15T13:11:42;19.39;63.74
67722;SHT31;58309;45.292;11.820;2024-02-15T13:14:11;19.07;62.58
67722;SHT31;58309;45.292;11.820;2024-02-15T13:16:36;18.59;64.44
67722;SHT31;58309;45.292;11.820;2024-02-15T13:19:02;18.32;64.56
67722;SHT31;58309;45.292;11.820;2024-02-15T13:21:28;17.33;69.51
67722;SHT31;58309;45.292;11.820;2024-02-15T13:23:56;17.43;66.99
67722;SHT31;58309;45.292;11.820;2024-02-15T13:26:21;17.33;66.83
67722;SHT31;58309;45.292;11.820;2024-02-15T13:28:48;17.13;68.85
67722;SHT31;58309;45.292;11.820;2024-02-15T13:31:14;16.88;68.23
67722;SHT31;58309;45.292;11.820;2024-02-15T13:33:40;16.82;71.50
67722;SHT31;58309;45.292;11.820;2024-02-15T13:36:06;16.82;70.50
67722;SHT31;58309;45.292;11.820;2024-02-15T13:38:36;16.58;72.91
67722;SHT31;58309;45.292;11.820;2024-02-15T13:41:02;16.45;71.01
67722;SHT31;58309;45.292;11.820;2024-02-15T13:43:29;16.51;72.70
67722;SHT31;58309;45.292;11.820;2024-02-15T13:45:54;16.48;71.08
67722;SHT31;58309;45.292;11.820;2024-02-15T13:48:20;16.60;71.82
67722;SHT31;58309;45.292;11.820;2024-02-15T13:50:45;16.48;72.18
67722;SHT31;58309;45.292;11.820;2024-02-15T13:53:11;16.47;69.87
67722;SHT31;58309;45.292;11.820;2024-02-15T13:55:38;16.23;71.12
67722;SHT31;58309;45.292;11.820;2024-02-15T13:58:05;15.96;71.87
67722;SHT31;58309;45.292;11.820;2024-02-15T14:00:33;15.78;71.81
67722;SHT31;58309;45.292;11.820;2024-02-15T14:03:00;15.75;71.40
67722;SHT31;58309;45.292;11.820;2024-02-15T14:05:29;15.70;72.07
67722;SHT31;58309;45.292;11.820;2024-02-15T14:08:00;15.72;71.48
67722;SHT31;58309;45.292;11.820;2024-02-15T14:10:28;15.81;70.72
67722;SHT31;58309;45.292;11.820;2024-02-15T14:12:54;16.00;71.23
67722;SHT31;58309;45.292;11.820;2024-02-15T14:15:21;16.10;70.54
67722;SHT31;58309;45.292;11.820;2024-02-15T14:17:47;15.94;73.73
67722;SHT31;58309;45.292;11.820;2024-02-15T14:20:13;15.89;73.49
67722;SHT31;58309;45.292;11.820;2024-02-15T14:22:46;15.78;73.56
67722;SHT31;58309;45.292;11.820;2024-02-15T14:25:18;15.67;73.21
67722;SHT31;58309;45.292;11.820;2024-02-15T14:27:44;15.49;73.27
67722;SHT31;58309;45.292;11.820;2024-02-15T14:30:10;15.28;72.70
67722;SHT31;58309;45.292;11.820;2024-02-15T14:32:54;15.21;74.26
67722;SHT31;58309;45.292;11.820;2024-02-15T14:35:36;15.18;75.07
67722;SHT31;58309;45.292;11.820;2024-02-15T14:38:05;15.10;73.56
67722;SHT31;58309;45.292;11.820;2024-02-15T14:40:47;15.12;74.74
67722;SHT31;58309;45.292;11.820;2024-02-15T14:43:20;15.04;76.12
67722;SHT31;58309;45.292;11.820;2024-02-15T14:45:49;14.88;76.19
67722;SHT31;58309;45.292;11.820;2024-02-15T14:48:15;14.76;76.17
67722;SHT31;58309;45.292;11.820;2024-02-15T14:50:43;14.60;76.82
67722;SHT31;58309;45.292;11.820;2024-02-15T14:53:09;14.43;77.98
67722;SHT31;58309;45.292;11.820;2024-02-15T14:55:36;14.37;78.11
67722;SHT31;58309;45.292;11.820;2024-02-15T14:58:06;14.21;77.23
67722;SHT31;58309;45.292;11.820;2024-02-15T15:00:35;14.04;78.23
67722;SHT31;58309;45.292;11.820;2024-02-15T15:03:03;13.89;78.67
67722;SHT31;58309;45.292;11.820;2024-02-15T15:05:28;13.72;78.82
67722;SHT31;58309;45.292;11.820;2024-02-15T15:08:13;13.63;80.55
67722;SHT31;58309;45.292;11.820;2024-02-15T15:10:57;13.51;80.48
67722;SHT31;58309;45.292;11.820;2024-02-15T15:13:41;13.54;80.47
67722;SHT31;58309;45.292;11.820;2024-02-15T15:16:06;13.57;80.86
67722;SHT31;58309;45.292;11.820;2024-02-15T15:18:33;13.61;81.41
67722;SHT31;58309;45.292;11.820;2024-02-15T15:21:01;13.60;83.12
67722;SHT31;58309;45.292;11.820;2024-02-15T15:23:27;13.57;83.25
67722;SHT31;58309;45.292;11.820;2024-02-15T15:25:57;13.44;83.77
67722;SHT31;58309;45.292;11.820;2024-02-15T15:28:22;13.34;84.67
67722;SHT31;58309;45.292;11.820;2024-02-15T15:30:48;13.16;87.27
67722;SHT31;58309;45.292;11.820;2024-02-15T15:33:16;12.96;88.92
67722;SHT31;58309;45.292;11.820;2024-02-15T15:35:43;12.85;90.10
67722;SHT31;58309;45.292;11.820;2024-02-15T15:38:08;12.73;91.15
67722;SHT31;58309;45.292;11.820;2024-02-15T15:40:34;12.58;92.00
67722;SHT31;58309;45.292;11.820;2024-02-15T15:43:00;12.45;92.01